Time;durP1;ratioP1;P1;durP2;ratioP2;P2;SDS_P1;SDS_P2;PMS_P1;PMS_P2;Temp;Humidity;BMP_temperature;BMP_pressure;BME280_temperature;BME280_humidity;BME280_pressure;Samples;Min_cycle;Max_cycle;Signal;HPM_P1;HPM_P2
2022/11/14 00:00:56;;;;;;;18.90;15.70;;;3.40;99.90;;;;;;5057937;28;20885;-53
2022/11/14 00:03:23;;;;;;;15.27;13.67;;;3.30;99.90;;;;;;5057758;28;20519;-55
2022/11/14 00:05:53;;;;;;;16.20;12.77;;;3.30;99.90;;;;;;5044758;28;20463;-57
2022/11/14 00:08:25;;;;;;;13.57;11.33;;;3.30;99.90;;;;;;5037812;28;20942;-55
2022/11/14 00:10:53;;;;;;;12.80;11.30;;;3.40;99.90;;;;;;5053157;28;20462;-56
2022/11/14 00:13:21;;;;;;;15.23;13.60;;;3.40;99.90;;;;;;5038028;28;20459;-56
2022/11/14 00:15:50;;;;;;;17.83;15.00;;;3.30;99.90;;;;;;5038001;28;20728;-55
2022/11/14 00:18:19;;;;;;;15.87;14.20;;;3.30;99.90;;;;;;5037876;28;20463;-53
2022/11/14 00:20:48;;;;;;;18.63;14.80;;;3.30;99.90;;;;;;5037703;28;20725;-55
2022/11/14 00:23:17;;;;;;;17.20;13.40;;;3.30;99.90;;;;;;5053932;28;20466;-53
2022/11/14 00:25:44;;;;;;;17.47;14.37;;;3.30;99.90;;;;;;5057875;28;20443;-55
2022/11/14 00:28:13;;;;;;;15.80;14.07;;;3.30;99.90;;;;;;5057184;28;20560;-57
2022/11/14 00:30:40;;;;;;;16.17;13.57;;;3.30;99.90;;;;;;5057167;28;20519;-58
2022/11/14 00:33:08;;;;;;;15.40;13.67;;;3.30;99.90;;;;;;5043901;28;20499;-55
2022/11/14 00:35:37;;;;;;;18.37;15.53;;;3.30;99.90;;;;;;5037204;28;20990;-58
2022/11/14 00:38:04;;;;;;;18.93;15.23;;;3.30;99.90;;;;;;5037271;28;20885;-55
2022/11/14 00:40:36;;;;;;;16.83;14.83;;;3.20;99.90;;;;;;5037055;28;20445;-57
2022/11/14 00:43:03;;;;;;;16.10;14.50;;;3.20;99.90;;;;;;5043947;28;20553;-53
2022/11/14 00:45:30;;;;;;;17.77;14.43;;;3.30;99.90;;;;;;5056868;28;20443;-56
2022/11/14 00:47:57;;;;;;;18.90;16.80;;;3.20;99.90;;;;;;5056983;28;20956;-56
2022/11/14 00:50:25;;;;;;;16.03;14.43;;;3.30;99.90;;;;;;5057370;28;20490;-53
2022/11/14 00:52:52;;;;;;;17.37;15.60;;;3.30;55.40;;;;;;5054518;28;20774;-54
2022/11/14 00:55:19;;;;;;;16.00;14.30;;;3.30;32.40;;;;;;5037631;28;20438;-52
2022/11/14 00:57:48;;;;;;;14.40;12.87;;;3.30;23.50;;;;;;5037449;28;20773;-56
2022/11/14 01:00:15;;;;;;;15.07;13.17;;;3.20;6.20;;;;;;5036889;28;20498;-55
2022/11/14 01:02:43;;;;;;;15.97;12.37;;;3.20;1.00;;;;;;5036519;28;20874;-53
2022/11/14 01:05:12;;;;;;;14.93;12.50;;;3.20;1.00;;;;;;5054152;28;20468;-53
2022/11/14 01:07:42;;;;;;;15.73;12.77;;;3.20;1.00;;;;;;5056274;28;20486;-55
2022/11/14 01:10:10;;;;;;;12.77;10.43;;;3.10;1.00;;;;;;5056605;28;20462;-56
2022/11/14 01:12:38;;;;;;;12.83;10.40;;;3.20;15.90;;;;;;5056719;28;20849;-53
2022/11/14 01:15:10;;;;;;;12.80;10.10;;;3.20;4.70;;;;;;5043187;28;20904;-55
2022/11/14 01:17:39;;;;;;;10.83;9.50;;;3.20;11.60;;;;;;5053589;28;20433;-54
2022/11/14 01:20:08;;;;;;;11.57;10.10;;;3.20;9.00;;;;;;5056501;28;20553;-56
2022/11/14 01:22:36;;;;;;;10.67;7.83;;;3.20;1.00;;;;;;5056848;28;20733;-55
2022/11/14 01:25:04;;;;;;;7.93;6.47;;;3.20;1.00;;;;;;5046989;28;20471;-58
2022/11/14 01:27:31;;;;;;;7.07;5.93;;;3.20;1.00;;;;;;5036921;28;20469;-58
2022/11/14 01:30:01;;;;;;;6.70;5.57;;;3.20;1.00;;;;;;5036306;28;20477;-58
2022/11/14 01:32:30;;;;;;;8.23;5.70;;;3.30;1.00;;;;;;5036683;28;20513;-58
2022/11/14 01:34:57;;;;;;;7.50;4.70;;;3.20;1.00;;;;;;5040558;28;20437;-54
2022/11/14 01:37:24;;;;;;;6.80;5.00;;;3.20;1.00;;;;;;5056733;28;20465;-52
2022/11/14 01:39:52;;;;;;;7.97;5.70;;;3.20;1.00;;;;;;5055964;28;20433;-56
2022/11/14 01:42:24;;;;;;;5.70;5.10;;;3.20;1.00;;;;;;5056437;28;20443;-56
2022/11/14 01:44:53;;;;;;;8.13;5.43;;;3.10;1.00;;;;;;5056088;28;20746;-53
2022/11/14 01:47:23;;;;;;;7.30;5.07;;;3.10;1.00;;;;;;5036818;28;20961;-55
2022/11/14 01:49:57;;;;;;;6.53;4.90;;;3.10;1.00;;;;;;5036618;28;20442;-55
2022/11/14 01:52:27;;;;;;;6.23;5.10;;;3.10;1.00;;;;;;5036438;28;20466;-53
2022/11/14 01:54:57;;;;;;;5.80;4.43;;;3.10;1.00;;;;;;5037111;28;20888;-58
2022/11/14 01:57:29;;;;;;;6.07;4.90;;;3.10;1.00;;;;;;5053758;28;20879;-56
2022/11/14 02:00:00;;;;;;;7.30;5.00;;;3.10;1.00;;;;;;5055791;28;20464;-55
2022/11/14 02:02:27;;;;;;;7.50;4.87;;;3.10;1.00;;;;;;5056452;28;20521;-54
2022/11/14 02:05:04;;;;;;;4.97;4.17;;;3.00;1.00;;;;;;5056681;28;20462;-55
2022/11/14 02:07:41;;;;;;;5.30;4.80;;;2.90;1.00;;;;;;5041191;28;20490;-52
2022/11/14 02:10:15;;;;;;;6.10;5.30;;;2.90;1.00;;;;;;5036155;28;20561;-58
2022/11/14 02:12:43;;;;;;;7.50;5.60;;;2.80;1.00;;;;;;5036640;28;20469;-53
2022/11/14 02:15:11;;;;;;;7.20;6.50;;;2.80;1.00;;;;;;5037659;28;20462;-58
2022/11/14 02:17:42;;;;;;;7.30;6.00;;;2.70;1.00;;;;;;5050109;28;20462;-57
2022/11/14 02:20:20;;;;;;;6.90;5.60;;;2.70;1.00;;;;;;5059580;28;20894;-58
2022/11/14 02:22:51;;;;;;;10.20;6.00;;;2.60;1.00;;;;;;5040577;28;20473;-56
2022/11/14 02:25:20;;;;;;;6.33;4.90;;;2.60;1.00;;;;;;5040127;28;20462;-58
2022/11/14 02:27:51;;;;;;;6.90;6.00;;;2.60;1.00;;;;;;5047986;28;20486;-57
2022/11/14 02:30:21;;;;;;;8.20;5.77;;;2.60;1.00;;;;;;5052255;28;20459;-51
2022/11/14 02:32:49;;;;;;;5.83;4.60;;;2.60;1.00;;;;;;5039695;28;20438;-51
2022/11/14 02:35:19;;;;;;;7.20;6.13;;;2.60;1.00;;;;;;5038884;28;20463;-51
2022/11/14 02:37:47;;;;;;;9.30;7.40;;;2.60;4.00;;;;;;5039809;28;20891;-53
2022/11/14 02:40:14;;;;;;;8.87;6.90;;;2.70;6.40;;;;;;5038990;28;20465;-54
2022/11/14 02:42:41;;;;;;;9.40;7.60;;;2.60;1.00;;;;;;5058423;28;20565;-54
2022/11/14 02:45:10;;;;;;;8.77;6.70;;;2.60;1.00;;;;;;5058903;28;20465;-51
2022/11/14 02:47:43;;;;;;;9.53;6.37;;;2.60;1.00;;;;;;5059191;28;20493;-52
2022/11/14 02:50:12;;;;;;;8.33;6.60;;;2.60;1.00;;;;;;5059407;28;20462;-58
2022/11/14 02:52:41;;;;;;;7.10;6.20;;;2.50;13.10;;;;;;5041802;28;20467;-54
2022/11/14 02:55:10;;;;;;;7.43;5.60;;;2.50;79.10;;;;;;5039554;28;20470;-57
2022/11/14 02:57:40;;;;;;;7.27;5.83;;;2.60;85.80;;;;;;5039753;28;20494;-55
2022/11/14 03:00:08;;;;;;;7.03;5.13;;;2.60;40.30;;;;;;5039200;28;20463;-56
2022/11/14 03:02:36;;;;;;;5.70;4.67;;;2.60;44.30;;;;;;5050789;28;20552;-57
2022/11/14 03:05:06;;;;;;;6.30;4.60;;;2.70;34.30;;;;;;5057573;28;20497;-55
2022/11/14 03:07:33;;;;;;;5.37;4.60;;;2.70;10.70;;;;;;5059099;28;20540;-56
2022/11/14 03:10:03;;;;;;;6.60;4.97;;;2.60;1.00;;;;;;5059438;28;20436;-53
2022/11/14 03:12:31;;;;;;;5.00;4.40;;;2.70;1.00;;;;;;5050069;28;20469;-59
2022/11/14 03:14:58;;;;;;;6.60;4.77;;;2.70;1.00;;;;;;5039050;28;20466;-52
2022/11/14 03:17:25;;;;;;;4.90;4.30;;;2.60;1.00;;;;;;5038921;28;20905;-54
2022/11/14 03:19:52;;;;;;;5.57;5.00;;;2.60;1.00;;;;;;5039313;28;20550;-53
2022/11/14 03:22:21;;;;;;;4.80;4.30;;;2.60;18.00;;;;;;5040901;28;20501;-55
2022/11/14 03:24:48;;;;;;;5.53;4.33;;;2.60;21.40;;;;;;5058647;28;20441;-53
2022/11/14 03:27:16;;;;;;;5.07;4.57;;;2.50;1.00;;;;;;5050624;28;20846;-55
2022/11/14 03:29:44;;;;;;;6.03;4.60;;;2.40;1.00;;;;;;5039816;28;20470;-53
2022/11/14 03:32:14;;;;;;;6.57;4.37;;;2.40;24.30;;;;;;5038417;28;20438;-57
2022/11/14 03:34:44;;;;;;;5.80;4.43;;;2.40;27.50;;;;;;5038644;28;20462;-55
2022/11/14 03:37:11;;;;;;;5.07;3.93;;;2.30;24.90;;;;;;5038568;28;20585;-55
2022/11/14 03:39:39;;;;;;;5.03;4.30;;;2.30;22.90;;;;;;5046355;28;20711;-53
2022/11/14 03:42:06;;;;;;;6.13;4.70;;;2.30;43.70;;;;;;5058086;28;20441;-55
2022/11/14 03:44:35;;;;;;;5.60;4.40;;;2.20;54.20;;;;;;5057858;28;20925;-56
2022/11/14 03:47:02;;;;;;;4.87;4.37;;;2.20;59.30;;;;;;5058570;28;20575;-55
2022/11/14 03:49:29;;;;;;;5.27;4.53;;;2.30;76.50;;;;;;5056713;28;20486;-55
2022/11/14 03:51:59;;;;;;;5.20;4.30;;;2.20;99.90;;;;;;5057286;28;20501;-51
2022/11/14 03:54:26;;;;;;;5.13;4.57;;;2.20;99.90;;;;;;5057538;28;20466;-53
2022/11/14 03:56:53;;;;;;;7.07;4.77;;;2.20;99.90;;;;;;5058062;28;20987;-56
2022/11/14 03:59:22;;;;;;;7.80;5.33;;;2.30;99.90;;;;;;5058256;28;20461;-58
2022/11/14 04:01:55;;;;;;;5.93;4.80;;;2.30;99.90;;;;;;5039032;28;20502;-53
2022/11/14 04:04:23;;;;;;;6.30;5.17;;;2.20;99.90;;;;;;5038027;28;20520;-52
2022/11/14 04:06:51;;;;;;;5.73;4.80;;;2.20;99.90;;;;;;5037147;28;20486;-53
2022/11/14 04:09:18;;;;;;;6.23;5.33;;;2.20;99.90;;;;;;5036736;28;20497;-54
2022/11/14 04:11:48;;;;;;;5.63;4.33;;;2.20;99.90;;;;;;5051330;28;20525;-55
2022/11/14 04:14:15;;;;;;;5.80;5.20;;;2.20;99.90;;;;;;5056741;28;20918;-57
2022/11/14 04:16:43;;;;;;;9.30;5.47;;;2.10;99.90;;;;;;5056637;28;20556;-56
2022/11/14 04:19:14;;;;;;;8.23;5.00;;;2.10;99.90;;;;;;5057745;28;20823;-54
2022/11/14 04:21:41;;;;;;;6.60;5.90;;;2.00;99.90;;;;;;5056951;28;20528;-56
2022/11/14 04:24:08;;;;;;;7.53;5.47;;;2.10;99.90;;;;;;5057072;28;20472;-53
2022/11/14 04:26:36;;;;;;;6.67;5.50;;;2.00;99.90;;;;;;5057554;28;20806;-57
2022/11/14 04:29:03;;;;;;;5.97;4.80;;;2.00;99.90;;;;;;5057498;28;20494;-53
2022/11/14 04:31:30;;;;;;;8.03;5.70;;;2.10;99.90;;;;;;5052175;28;20576;-50
2022/11/14 04:33:57;;;;;;;6.63;5.20;;;2.00;99.90;;;;;;5037140;28;20471;-55
2022/11/14 04:36:26;;;;;;;6.60;5.00;;;2.00;99.90;;;;;;5046026;28;20563;-57
2022/11/14 04:38:53;;;;;;;6.30;5.33;;;2.10;99.90;;;;;;5056803;28;20433;-57
2022/11/14 04:41:20;;;;;;;7.10;5.13;;;2.10;99.90;;;;;;5057397;28;20437;-56
2022/11/14 04:43:47;;;;;;;5.40;4.90;;;2.10;99.90;;;;;;5037827;28;20467;-52
2022/11/14 04:46:15;;;;;;;6.10;5.30;;;2.10;99.90;;;;;;5037287;28;20459;-58
2022/11/14 04:48:42;;;;;;;9.10;5.80;;;2.00;99.90;;;;;;5037221;28;20803;-56
2022/11/14 04:51:09;;;;;;;6.20;5.60;;;2.00;99.90;;;;;;5037592;28;20566;-53
2022/11/14 04:53:41;;;;;;;8.83;6.50;;;2.10;99.90;;;;;;5050155;28;20469;-57
2022/11/14 04:56:08;;;;;;;10.33;6.03;;;2.20;1.00;;;;;;5056576;28;20473;-56
2022/11/14 04:58:36;;;;;;;7.53;6.60;;;2.20;1.00;;;;;;5056952;28;20440;-56
2022/11/14 05:01:09;;;;;;;8.20;6.70;;;2.20;1.00;;;;;;5057021;28;20538;-58
2022/11/14 05:03:37;;;;;;;8.80;6.90;;;2.20;99.90;;;;;;5046903;28;20441;-56
2022/11/14 05:06:04;;;;;;;8.17;6.50;;;2.20;99.90;;;;;;5049435;28;20472;-56
2022/11/14 05:08:32;;;;;;;10.33;8.10;;;2.20;99.90;;;;;;5056693;28;20777;-57
2022/11/14 05:11:00;;;;;;;13.10;7.90;;;2.20;99.90;;;;;;5057274;28;20565;-57
2022/11/14 05:13:27;;;;;;;9.50;7.60;;;2.20;99.90;;;;;;5055351;28;20550;-55
2022/11/14 05:15:58;;;;;;;9.17;7.10;;;2.20;99.90;;;;;;5042131;28;20898;-55
2022/11/14 05:18:28;;;;;;;10.17;8.33;;;2.20;99.90;;;;;;5035875;28;20432;-58
2022/11/14 05:20:59;;;;;;;9.87;7.27;;;2.20;99.90;;;;;;5036681;28;20444;-56
2022/11/14 05:23:26;;;;;;;8.07;7.27;;;2.20;99.90;;;;;;5037836;28;20445;-57
2022/11/14 05:26:03;;;;;;;13.63;7.63;;;2.20;99.90;;;;;;5056973;28;20457;-57
2022/11/14 05:28:38;;;;;;;9.17;7.30;;;2.20;99.90;;;;;;5056899;28;20946;-57
2022/11/14 05:31:08;;;;;;;8.00;6.37;;;2.20;99.90;;;;;;5056859;28;20461;-56
2022/11/14 05:33:36;;;;;;;9.10;6.93;;;2.10;1.00;;;;;;5056531;28;20504;-56
2022/11/14 05:36:06;;;;;;;9.40;7.20;;;2.20;1.00;;;;;;5036633;28;20471;-57
2022/11/14 05:38:34;;;;;;;15.07;10.37;;;2.10;1.00;;;;;;5062400;28;20436;-56
2022/11/14 05:41:08;;;;;;;14.07;11.67;;;2.20;1.00;;;;;;5065206;28;20756;-51
2022/11/14 05:43:35;;;;;;;14.47;12.00;;;2.10;1.00;;;;;;5062566;28;20522;-54
2022/11/14 05:46:04;;;;;;;17.33;15.50;;;2.20;1.00;;;;;;5059058;28;20442;-58
2022/11/14 05:48:31;;;;;;;17.07;14.43;;;2.30;79.20;;;;;;5063111;28;20490;-55
2022/11/14 05:51:03;;;;;;;14.93;11.67;;;2.30;66.50;;;;;;5064620;28;20514;-56
2022/11/14 05:53:34;;;;;;;23.17;16.00;;;2.30;19.00;;;;;;5071317;28;20431;-53
2022/11/14 05:56:02;;;;;;;20.77;16.67;;;2.20;1.00;;;;;;5070049;28;20735;-52
2022/11/14 05:58:31;;;;;;;25.10;15.73;;;2.30;99.90;;;;;;5061585;28;20527;-56
2022/11/14 06:01:06;;;;;;;20.07;16.57;;;2.40;1.00;;;;;;5068057;28;20445;-52
2022/11/14 06:03:34;;;;;;;22.50;15.90;;;2.50;99.90;;;;;;5066541;28;21006;-56
2022/11/14 06:06:02;;;;;;;20.40;13.50;;;2.50;99.90;;;;;;5060950;28;20462;-54
2022/11/14 06:08:30;;;;;;;21.17;15.47;;;2.50;1.00;;;;;;5078961;28;20554;-54
2022/11/14 06:11:02;;;;;;;18.03;13.10;;;2.40;1.00;;;;;;5060325;28;20473;-57
2022/11/14 06:13:31;;;;;;;19.30;13.47;;;2.30;99.90;;;;;;5062641;28;20453;-57
2022/11/14 06:16:00;;;;;;;18.63;12.93;;;2.20;18.50;;;;;;5068022;28;20462;-53
2022/11/14 06:18:28;;;;;;;14.80;12.63;;;2.10;1.00;;;;;;5067486;28;21022;-59
2022/11/14 06:20:59;;;;;;;17.83;12.50;;;2.10;1.00;;;;;;5063494;28;20435;-55
2022/11/14 06:23:27;;;;;;;17.83;12.83;;;2.10;1.00;;;;;;5063637;28;20455;-59
2022/11/14 06:25:59;;;;;;;13.40;9.97;;;2.10;1.00;;;;;;5059710;28;20463;-57
2022/11/14 06:28:31;;;;;;;10.97;8.03;;;2.10;1.00;;;;;;5059657;28;20464;-56
2022/11/14 06:30:59;;;;;;;13.30;9.57;;;2.10;1.00;;;;;;5062665;28;20455;-57
2022/11/14 06:33:27;;;;;;;16.20;9.73;;;2.10;1.00;;;;;;5067080;28;20477;-57
2022/11/14 06:36:01;;;;;;;11.83;9.37;;;2.00;1.00;;;;;;5066709;28;20547;-57
2022/11/14 06:38:30;;;;;;;9.10;8.10;;;2.00;1.00;;;;;;5062319;28;20506;-57
2022/11/14 06:41:03;;;;;;;13.97;9.90;;;2.00;1.00;;;;;;5067445;28;20909;-55
2022/11/14 06:43:34;;;;;;;10.30;8.80;;;2.00;1.00;;;;;;5064219;28;20432;-59
2022/11/14 06:46:01;;;;;;;11.33;8.90;;;2.00;1.00;;;;;;5057204;28;20469;-54
2022/11/14 06:48:30;;;;;;;13.40;10.00;;;2.00;1.00;;;;;;5072077;28;20474;-58
2022/11/14 06:51:04;;;;;;;15.20;11.37;;;2.10;15.70;;;;;;5056877;28;20476;-58
2022/11/14 06:53:36;;;;;;;16.57;10.30;;;2.10;99.90;;;;;;5053197;28;20461;-55
2022/11/14 06:56:05;;;;;;;17.67;11.77;;;2.10;99.90;;;;;;5069054;28;20880;-59
2022/11/14 06:58:35;;;;;;;17.53;11.40;;;2.20;99.90;;;;;;5066024;28;20433;-58
2022/11/14 07:01:07;;;;;;;28.17;14.37;;;2.20;99.90;;;;;;5064890;28;20494;-57
2022/11/14 07:03:35;;;;;;;55.73;37.20;;;2.20;99.90;;;;;;5046451;28;20470;-57
2022/11/14 07:06:04;;;;;;;38.90;27.60;;;2.20;99.90;;;;;;5064235;28;20519;-60
2022/11/14 07:08:32;;;;;;;23.93;19.20;;;2.20;51.90;;;;;;5068266;28;20575;-57
2022/11/14 07:11:03;;;;;;;23.57;17.40;;;2.20;45.50;;;;;;5059626;28;20552;-59
2022/11/14 07:13:33;;;;;;;20.40;16.20;;;2.20;9.50;;;;;;5059526;28;20889;-59
2022/11/14 07:16:02;;;;;;;20.10;15.80;;;2.30;90.50;;;;;;5058160;28;20772;-57
2022/11/14 07:18:31;;;;;;;20.67;14.63;;;2.30;1.00;;;;;;5059162;28;20465;-57
2022/11/14 07:21:01;;;;;;;19.13;12.50;;;2.30;19.80;;;;;;5044476;28;20461;-57
2022/11/14 07:23:29;;;;;;;13.70;11.30;;;2.30;1.00;;;;;;5043351;28;20462;-59
2022/11/14 07:25:56;;;;;;;16.97;14.83;;;2.40;55.10;;;;;;5058286;28;20793;-57
2022/11/14 07:28:26;;;;;;;18.63;12.37;;;2.50;99.90;;;;;;5057988;28;20954;-58
2022/11/14 07:30:54;;;;;;;15.53;12.30;;;2.60;99.90;;;;;;5055726;28;20469;-59
2022/11/14 07:33:24;;;;;;;15.70;14.00;;;2.60;55.10;;;;;;5057554;28;20447;-59
2022/11/14 07:35:51;;;;;;;14.30;10.93;;;2.60;24.10;;;;;;5056483;28;20552;-59
2022/11/14 07:38:19;;;;;;;16.50;11.17;;;2.70;1.00;;;;;;5056365;28;20875;-60
2022/11/14 07:40:54;;;;;;;19.40;13.53;;;2.80;1.00;;;;;;5052934;28;20468;-60
2022/11/14 07:43:21;;;;;;;16.37;11.50;;;2.90;1.00;;;;;;5038309;28;20444;-60
2022/11/14 07:45:52;;;;;;;13.13;9.57;;;3.00;1.00;;;;;;5038073;28;20816;-60
2022/11/14 07:48:20;;;;;;;20.73;17.73;;;3.10;1.00;;;;;;5037461;28;20438;-60
2022/11/14 07:50:49;;;;;;;25.83;19.03;;;3.20;6.40;;;;;;5038958;28;20491;-60
2022/11/14 07:53:17;;;;;;;24.37;16.43;;;3.40;35.70;;;;;;5058241;28;20469;-61
2022/11/14 07:55:45;;;;;;;19.93;15.10;;;3.50;1.00;;;;;;5057385;28;20466;-61
2022/11/14 07:58:13;;;;;;;17.90;13.70;;;3.90;55.70;;;;;;5058303;28;20462;-61
2022/11/14 08:00:40;;;;;;;21.30;15.00;;;4.20;9.40;;;;;;5058084;28;20749;-60
2022/11/14 08:03:07;;;;;;;19.03;13.77;;;4.50;1.00;;;;;;5040575;28;20468;-60
2022/11/14 08:05:35;;;;;;;19.60;13.83;;;4.60;1.00;;;;;;5038036;28;20469;-59
2022/11/14 08:08:04;;;;;;;19.70;14.53;;;4.80;99.90;;;;;;5037579;28;20459;-60
2022/11/14 08:10:33;;;;;;;20.47;14.10;;;5.00;99.90;;;;;;5037711;28;20848;-59
2022/11/14 08:13:07;;;;;;;21.13;15.53;;;5.20;99.90;;;;;;5048124;28;20493;-60
2022/11/14 08:15:34;;;;;;;21.37;15.47;;;5.40;99.90;;;;;;5057599;28;20667;-58
2022/11/14 08:18:04;;;;;;;21.33;16.30;;;5.60;99.90;;;;;;5057473;28;20466;-59
2022/11/14 08:20:31;;;;;;;22.70;16.63;;;5.70;79.70;;;;;;5057388;28;20458;-60
2022/11/14 08:23:06;;;;;;;20.70;15.60;;;5.90;38.30;;;;;;5049329;28;20503;-60
2022/11/14 08:25:33;;;;;;;23.03;17.40;;;6.10;14.70;;;;;;5038005;28;20474;-60
2022/11/14 08:28:01;;;;;;;22.13;17.83;;;6.20;1.00;;;;;;5037597;28;20892;-60
2022/11/14 08:30:32;;;;;;;22.60;16.40;;;6.40;1.00;;;;;;5037214;28;20492;-61
2022/11/14 08:33:03;;;;;;;24.00;17.57;;;6.50;1.00;;;;;;5040823;28;20468;-61
2022/11/14 08:35:30;;;;;;;23.67;18.10;;;6.50;1.00;;;;;;5057087;28;20456;-62
2022/11/14 08:37:58;;;;;;;20.83;16.40;;;6.60;1.00;;;;;;5056911;28;20490;-62
2022/11/14 08:40:27;;;;;;;23.33;16.63;;;6.70;1.00;;;;;;5056471;28;20456;-60
2022/11/14 08:42:59;;;;;;;22.37;16.13;;;6.90;1.00;;;;;;5057259;28;20466;-61
2022/11/14 08:45:27;;;;;;;22.70;16.77;;;7.00;1.00;;;;;;5057175;28;20462;-61
2022/11/14 08:47:54;;;;;;;24.53;17.33;;;7.10;1.00;;;;;;5055842;28;20459;-59
2022/11/14 08:50:21;;;;;;;24.40;17.37;;;7.20;1.00;;;;;;5055629;28;20490;-60
2022/11/14 08:52:54;;;;;;;23.87;18.07;;;7.20;1.00;;;;;;5055625;28;20462;-61
2022/11/14 08:55:22;;;;;;;22.93;17.80;;;7.20;1.00;;;;;;5040288;28;20462;-60
2022/11/14 08:57:53;;;;;;;24.03;18.50;;;7.30;1.00;;;;;;5037318;28;20950;-60
2022/11/14 09:00:25;;;;;;;25.57;18.10;;;7.30;1.00;;;;;;5036906;28;20470;-58
2022/11/14 09:02:52;;;;;;;23.03;18.70;;;7.40;1.00;;;;;;5036825;28;20573;-60
2022/11/14 09:05:20;;;;;;;24.60;19.07;;;7.40;1.00;;;;;;5046651;28;20468;-60
2022/11/14 09:07:47;;;;;;;23.37;17.03;;;7.40;1.00;;;;;;5056866;28;20496;-60
2022/11/14 09:10:14;;;;;;;22.27;19.17;;;7.40;1.00;;;;;;5055687;28;20589;-60
2022/11/14 09:12:42;;;;;;;24.37;17.30;;;7.40;1.00;;;;;;5057140;28;20460;-61
2022/11/14 09:15:11;;;;;;;26.57;18.80;;;7.50;1.00;;;;;;5041838;28;20441;-59
2022/11/14 09:17:42;;;;;;;24.53;18.43;;;7.50;1.00;;;;;;5036984;28;20467;-61
2022/11/14 09:20:13;;;;;;;22.77;17.17;;;7.60;1.00;;;;;;5037763;28;20456;-60
2022/11/14 09:22:40;;;;;;;23.77;19.17;;;7.50;1.00;;;;;;5037557;28;20442;-61
2022/11/14 09:25:10;;;;;;;23.60;18.50;;;7.50;1.00;;;;;;5039904;28;20534;-61
2022/11/14 09:27:37;;;;;;;22.43;17.17;;;7.50;1.00;;;;;;5041488;28;20888;-60
2022/11/14 09:30:06;;;;;;;24.47;18.07;;;7.50;1.00;;;;;;5040241;28;20498;-59
2022/11/14 09:32:38;;;;;;;25.70;18.30;;;7.50;1.00;;;;;;5040976;28;20514;-60
2022/11/14 09:35:08;;;;;;;28.97;19.73;;;7.50;1.00;;;;;;5045995;28;20862;-61
2022/11/14 09:37:37;;;;;;;22.37;17.80;;;7.60;1.00;;;;;;5059452;28;20486;-61
2022/11/14 09:40:07;;;;;;;24.80;17.80;;;7.50;1.00;;;;;;5060798;28;20908;-59
2022/11/14 09:42:55;;;;;;;21.50;16.67;;;7.60;1.00;;;;;;5060733;28;20464;-60
2022/11/14 09:45:22;;;;;;;22.73;16.80;;;7.60;1.00;;;;;;5059536;28;20460;-60
2022/11/14 09:47:54;;;;;;;21.73;17.43;;;7.60;1.00;;;;;;5059982;28;20467;-60
2022/11/14 09:50:26;;;;;;;19.77;16.07;;;7.60;1.00;;;;;;5060044;28;20490;-61
2022/11/14 09:52:55;;;;;;;18.30;14.80;;;7.70;1.00;;;;;;5060926;28;20470;-59
2022/11/14 09:55:27;;;;;;;19.00;14.53;;;7.70;1.00;;;;;;5058715;28;20462;-61
2022/11/14 09:57:55;;;;;;;20.63;13.87;;;7.70;1.00;;;;;;5040533;28;20469;-60
2022/11/14 10:00:25;;;;;;;21.00;14.00;;;7.70;1.00;;;;;;5040952;28;20759;-61
2022/11/14 10:03:05;;;;;;;17.47;14.23;;;7.80;1.00;;;;;;5040939;28;20899;-61
2022/11/14 10:05:48;;;;;;;17.50;12.70;;;7.80;1.00;;;;;;5040472;28;20437;-60
2022/11/14 10:08:32;;;;;;;17.40;13.10;;;7.90;1.00;;;;;;5040113;28;20438;-59
2022/11/14 10:11:06;;;;;;;19.17;14.57;;;8.00;1.00;;;;;;5040333;28;20844;-58
2022/11/14 10:13:57;;;;;;;17.33;14.07;;;8.10;1.00;;;;;;5040673;28;20480;-60
2022/11/14 10:16:36;;;;;;;20.60;16.50;;;8.20;1.00;;;;;;5042321;28;20904;-60
2022/11/14 10:19:18;;;;;;;18.60;14.93;;;8.20;1.00;;;;;;5040776;28;20462;-59
2022/11/14 10:22:08;;;;;;;17.23;13.17;;;8.30;1.00;;;;;;5049372;28;20466;-60
2022/11/14 10:25:13;;;;;;;21.50;14.53;;;8.30;1.00;;;;;;5059926;28;20930;-60
2022/11/14 10:27:50;;;;;;;20.93;14.90;;;8.30;1.00;;;;;;5050530;28;20459;-57
2022/11/14 10:30:19;;;;;;;18.30;13.97;;;8.30;1.00;;;;;;5041272;28;20935;-60
2022/11/14 10:33:10;;;;;;;21.20;14.27;;;8.20;1.00;;;;;;5039820;28;20532;-60
2022/11/14 10:35:42;;;;;;;17.60;14.30;;;8.20;1.00;;;;;;5039222;28;20526;-60
2022/11/14 10:38:16;;;;;;;24.40;15.63;;;8.30;1.00;;;;;;5056788;28;20458;-56
2022/11/14 10:40:48;;;;;;;22.47;16.13;;;8.20;1.00;;;;;;5063105;28;20554;-60
2022/11/14 10:43:24;;;;;;;21.57;15.40;;;8.20;1.00;;;;;;5063341;28;20473;-57
2022/11/14 10:45:56;;;;;;;21.90;15.90;;;8.30;1.00;;;;;;5059608;28;20912;-60
2022/11/14 10:48:30;;;;;;;24.43;17.20;;;8.30;1.00;;;;;;5057490;28;20454;-59
2022/11/14 10:51:04;;;;;;;21.10;16.27;;;8.30;1.00;;;;;;5057810;28;20584;-60
2022/11/14 10:53:45;;;;;;;21.63;16.53;;;8.30;1.00;;;;;;5045605;28;20466;-59
2022/11/14 10:56:15;;;;;;;23.20;17.27;;;8.30;1.00;;;;;;5039035;28;20917;-57
2022/11/14 10:58:44;;;;;;;25.33;16.17;;;8.30;1.00;;;;;;5040264;28;20459;-59
2022/11/14 11:01:39;;;;;;;20.63;16.07;;;8.30;1.00;;;;;;5039973;28;20441;-58
2022/11/14 11:04:18;;;;;;;19.23;15.23;;;8.30;1.00;;;;;;5004258;28;20471;-60
2022/11/14 11:07:00;;;;;;;22.30;15.93;;;8.40;1.00;;;;;;5039215;28;21072;-58
2022/11/14 11:12:20;;;;;;;19.90;14.87;;;8.80;99.90;;;;;;5039128;28;20442;-60
2022/11/14 11:14:50;;;;;;;19.07;14.57;;;9.30;99.90;;;;;;5039655;28;20823;-60
2022/11/14 11:17:23;;;;;;;18.40;15.37;;;10.00;99.90;;;;;;5040564;28;20887;-60
2022/11/14 11:19:52;;;;;;;20.00;15.43;;;10.60;99.90;;;;;;5047765;28;20633;-60
2022/11/14 11:22:36;;;;;;;19.30;14.63;;;10.60;99.90;;;;;;5059393;28;20463;-60
2022/11/14 11:25:22;;;;;;;19.07;15.07;;;10.50;99.90;;;;;;5060335;28;20467;-60
2022/11/14 11:28:05;;;;;;;18.47;15.50;;;10.10;99.90;;;;;;5059803;28;20490;-59
2022/11/14 11:30:32;;;;;;;19.03;15.17;;;10.00;99.90;;;;;;5056647;28;20941;-60
2022/11/14 11:33:16;;;;;;;20.67;15.43;;;9.80;99.90;;;;;;5045155;28;20459;-59
2022/11/14 11:35:46;;;;;;;20.53;15.63;;;9.80;99.90;;;;;;5038116;28;20957;-58
2022/11/14 11:38:17;;;;;;;18.70;15.30;;;9.80;99.90;;;;;;5039026;28;20509;-57
2022/11/14 11:40:49;;;;;;;20.07;16.10;;;9.90;99.90;;;;;;5038000;28;20452;-59
2022/11/14 11:43:23;;;;;;;21.13;14.27;;;9.80;99.90;;;;;;5039032;28;20911;-59
2022/11/14 11:45:53;;;;;;;18.63;14.27;;;9.90;99.90;;;;;;5039399;28;20764;-59
2022/11/14 11:48:22;;;;;;;18.73;12.80;;;9.90;99.90;;;;;;5037889;28;20463;-60
2022/11/14 11:50:50;;;;;;;16.13;13.33;;;9.70;99.90;;;;;;5042972;28;20486;-58
2022/11/14 11:53:24;;;;;;;16.93;13.90;;;9.50;99.90;;;;;;5056470;28;20990;-59
2022/11/14 11:55:59;;;;;;;19.00;14.50;;;9.50;99.90;;;;;;5055776;28;20462;-60
2022/11/14 11:58:30;;;;;;;14.00;11.37;;;9.70;99.90;;;;;;5057383;28;20476;-59
2022/11/14 12:01:00;;;;;;;15.40;12.37;;;9.80;99.90;;;;;;5053636;28;20444;-57
2022/11/14 12:03:28;;;;;;;17.67;13.53;;;9.60;99.90;;;;;;5037955;28;20469;-54
2022/11/14 12:06:09;;;;;;;15.23;12.07;;;9.60;99.90;;;;;;5037753;28;20448;-57
2022/11/14 12:08:45;;;;;;;15.83;12.30;;;9.70;99.90;;;;;;5038233;28;20506;-60
2022/11/14 12:11:17;;;;;;;14.30;11.07;;;10.00;99.90;;;;;;5038123;28;20499;-59
2022/11/14 12:14:09;;;;;;;14.77;11.07;;;10.20;99.90;;;;;;5039324;28;20469;-58
2022/11/14 12:16:58;;;;;;;14.10;11.70;;;10.50;99.90;;;;;;5046431;28;20792;-60
2022/11/14 12:19:51;;;;;;;15.33;12.33;;;10.60;99.90;;;;;;5057334;28;20462;-58
2022/11/14 12:22:45;;;;;;;15.87;12.20;;;10.60;99.90;;;;;;5052255;28;20554;-58
2022/11/14 12:25:48;;;;;;;14.10;10.80;;;10.30;99.90;;;;;;5039460;28;20465;-59
2022/11/14 12:28:41;;;;;;;18.60;13.90;;;10.20;99.90;;;;;;5036945;28;20882;-58
2022/11/14 12:31:16;;;;;;;15.30;12.70;;;10.20;99.90;;;;;;5037764;28;20495;-59
2022/11/14 12:33:57;;;;;;;19.70;15.20;;;10.10;99.90;;;;;;5050991;28;20866;-58
2022/11/14 12:36:30;;;;;;;16.53;13.10;;;9.90;99.90;;;;;;5057984;28;20492;-56
2022/11/14 12:38:59;;;;;;;16.20;12.93;;;9.70;99.90;;;;;;5038648;28;20753;-58
2022/11/14 12:41:28;;;;;;;23.13;17.03;;;9.80;99.90;;;;;;5038433;28;20455;-57
2022/11/14 12:44:19;;;;;;;21.00;15.40;;;9.70;99.90;;;;;;5042673;28;20474;-58
2022/11/14 12:47:18;;;;;;;17.80;13.97;;;9.80;99.90;;;;;;5055086;28;20458;-58
2022/11/14 12:50:26;;;;;;;20.23;14.93;;;9.80;99.90;;;;;;5057200;28;20472;-59
2022/11/14 12:52:54;;;;;;;21.60;17.13;;;9.90;99.90;;;;;;5056019;28;20462;-60
2022/11/14 12:55:58;;;;;;;17.73;13.67;;;10.00;99.90;;;;;;5058172;28;20565;-60
2022/11/14 12:58:43;;;;;;;17.00;12.80;;;10.00;99.90;;;;;;5040706;28;20560;-59
2022/11/14 13:01:39;;;;;;;17.00;13.17;;;9.80;99.90;;;;;;5054834;28;20450;-59
2022/11/14 13:04:24;;;;;;;17.00;12.90;;;9.80;99.90;;;;;;5049250;28;20465;-60
2022/11/14 13:07:07;;;;;;;20.67;17.53;;;9.70;99.90;;;;;;5057404;28;20443;-60
2022/11/14 13:09:41;;;;;;;18.77;14.33;;;9.70;99.90;;;;;;5067930;28;20452;-60
2022/11/14 13:24:05;;;;;;;17.57;13.23;;;9.80;99.90;;;;;;5054060;28;20793;-58